02 Jul 2020 17:21 UTC 2020184+17:21 UTC

Overview Datums Bench Marks Data Query Site Visit Daily QC Messages Attributes

170: National Park Service - Baffin Bay

27° 17' 49" N   97° 24' 17" W
NPSBB
United States National Park Service United States National Park Service

Station Information

National Park Service - Baffin Bay
National Park Service - Baffin Bay
more pictures
 
Station Name:National Park Service - Baffin Bay
DNR ID:170
Location:27° 17' 49" N, 97° 24' 17" W

Water Level Forecasts

Latest Observations

Series Metric English Marine Observed at
Water Temperature 29.4 °C 84.9 °F 84.9 °F Jul 02 12:00 CDT
00h12m ago
Salinity 17.800 psu 17.800 psu 17.800 psu Jul 02 12:00 CDT
00h12m ago
Turbidity 5 ntu 5 ntu 5 ntu Jul 02 12:00 CDT
00h12m ago
Dissolved Oxygen 5.24 mg/L 0.000327 lb/ft3 0.000327 lb/ft3 Jul 02 12:00 CDT
00h12m ago

Maps

National Park Service - Baffin Bay
All Stations in Area
Entire Network
 

Recent Observations

Date/Time Water
Temp (°F)
Sal (psu) pH (pH) Turb (ntu) DO (lb/ft3)
Jul 02 12:00 CDT 84.9 17.800 5 0.000327
Jul 02 11:00 CDT 83.7 17.700 8 0.000307
Jul 02 10:00 CDT 82.8 20.100 4 0.000266
Jul 02 09:00 CDT 81.7 1.000 10 0.000282
Jul 02 08:00 CDT 81.3 8.200 4 0.000230
Jul 02 07:00 CDT 81.5 17.300 7 0.000230
Jul 02 06:00 CDT 82.0 17.100 8 0.000247
Jul 02 05:00 CDT 82.0 0.900 9 0.000277
Jul 02 04:00 CDT 82.2 1.000 11 0.000272
Jul 02 03:00 CDT 82.2 18.900 5 0.000209
Jul 02 02:00 CDT 82.2 17.700 7 0.000218
Jul 02 01:00 CDT 83.1 18.600 6 0.000232
Jul 02 00:00 CDT 84.0 17.900 5 0.000267
Jul 01 23:00 CDT 85.1 18.100 8 0.000290
Jul 01 22:00 CDT 85.5 18.600 7 0.000295
Jul 01 21:00 CDT 86.4 18.100 5 0.000315
Jul 01 20:00 CDT 86.7 20.800 5 0.000325
Jul 01 19:00 CDT 88.0 17.900 8 0.000370
Jul 01 18:00 CDT 88.0 3.800 7 0.000401
Jul 01 17:00 CDT 88.7 18.000 8 0.000375
Jul 01 16:00 CDT 89.6 33.400 8 0.000396
Jul 01 15:00 CDT 88.5 17.800 9 0.000420
Jul 01 14:00 CDT 87.4 18.100 9 0.000380
Jul 01 13:00 CDT 86.4 21.000 9 0.000401
Jul 01 12:00 CDT 84.9 0.800 15 0.000429

Historical Data Availability